Aviation Digital Data Service (ADDS)

Output produced by TAFs form (0209 UTC 24 November 2017)
found at http://www.aviationweather.gov/adds/tafs/
 
METAR text: CYQH 240200Z 09003KT 080V220 20SM BKN100 M18/M20 A2932 RMK AC6 SLP991
Conditions at: CYQH (WATSON LAKE AIRP, YT, CA) observed 0200 UTC 24 November 2017
Temperature: -18.0°C (-0°F)
Dewpoint: -20.0°C (-4°F) [RH = 84%]
Pressure (altimeter): 29.32 inches Hg (993.0 mb)
[Sea-level pressure: 999.1 mb]
Winds: from the E (90 degrees) at 3 MPH (3 knots; 1.6 m/s)
Visibility: 20 miles (32 km)
Ceiling: 10000 feet AGL
Clouds: broken clouds at 10000 feet AGL
Weather: no significant weather observed at this time

Forecast for: CYQH (WATSON LAKE AIRP, YT, CA)
Text: TAF CYQH 232339Z 2400/2412 26004KT P6SM BKN070 OVC120
Forecast period: 0000 to 1200 UTC 24 November 2017
Forecast type: FROM: standard forecast or significant change
Winds: from the W (260 degrees) at 5 MPH (4 knots; 2.1 m/s)
Visibility: 6 or more miles (10+ km)
Ceiling: 7000 feet AGL
Clouds: broken clouds at 7000 feet AGL
overcast cloud deck at 12000 feet AGL
Weather: no significant weather forecast for this period
Text: TEMPO 2400/2412 4SM -SN OVC040 RMK NXT FCST BY 240600Z
Forecast period: 0000 to 1200 UTC 24 November 2017
Forecast type: TEMPORARY: The following changes expected for less than half the time period
Visibility: 4 miles (6 km)
Ceiling: 4000 feet AGL
Clouds: overcast cloud deck at 4000 feet AGL
Weather: -SN  (light snow)